sensor_id;sensor_type;location;lat;lon;timestamp;P1;durP1;ratioP1;P2;durP2;ratioP2
71667;SDS011;59504;54.806;9.640;2022-11-15T00:00:29;60.53;;;26.60;;
71667;SDS011;59504;54.806;9.640;2022-11-15T00:02:30;59.10;;;25.27;;
71667;SDS011;59504;54.806;9.640;2022-11-15T00:04:31;62.25;;;25.70;;
71667;SDS011;59504;54.806;9.640;2022-11-15T00:06:32;62.20;;;26.48;;
71667;SDS011;59504;54.806;9.640;2022-11-15T00:08:33;65.38;;;27.45;;
71667;SDS011;59504;54.806;9.640;2022-11-15T00:10:33;68.00;;;27.25;;
71667;SDS011;59504;54.806;9.640;2022-11-15T00:12:34;66.90;;;28.27;;
71667;SDS011;59504;54.806;9.640;2022-11-15T00:14:35;67.60;;;28.88;;
71667;SDS011;59504;54.806;9.640;2022-11-15T00:16:36;65.30;;;28.27;;
71667;SDS011;59504;54.806;9.640;2022-11-15T00:18:37;64.20;;;27.27;;
71667;SDS011;59504;54.806;9.640;2022-11-15T00:20:39;67.85;;;28.58;;
71667;SDS011;59504;54.806;9.640;2022-11-15T00:22:39;68.40;;;30.75;;
71667;SDS011;59504;54.806;9.640;2022-11-15T00:24:40;69.63;;;29.77;;
71667;SDS011;59504;54.806;9.640;2022-11-15T00:26:41;67.72;;;28.77;;
71667;SDS011;59504;54.806;9.640;2022-11-15T00:28:41;74.95;;;31.27;;
71667;SDS011;59504;54.806;9.640;2022-11-15T00:30:42;70.28;;;31.95;;
71667;SDS011;59504;54.806;9.640;2022-11-15T00:32:43;68.68;;;29.42;;
71667;SDS011;59504;54.806;9.640;2022-11-15T00:34:43;72.20;;;29.35;;
71667;SDS011;59504;54.806;9.640;2022-11-15T00:36:44;79.20;;;31.58;;
71667;SDS011;59504;54.806;9.640;2022-11-15T00:38:45;75.68;;;31.20;;
71667;SDS011;59504;54.806;9.640;2022-11-15T00:40:45;70.07;;;29.30;;
71667;SDS011;59504;54.806;9.640;2022-11-15T00:42:46;64.05;;;27.30;;
71667;SDS011;59504;54.806;9.640;2022-11-15T00:44:47;66.68;;;30.02;;
71667;SDS011;59504;54.806;9.640;2022-11-15T00:47:07;72.60;;;30.75;;
71667;SDS011;59504;54.806;9.640;2022-11-15T00:49:08;65.53;;;28.50;;
71667;SDS011;59504;54.806;9.640;2022-11-15T00:51:29;68.93;;;29.20;;
71667;SDS011;59504;54.806;9.640;2022-11-15T00:53:50;67.93;;;27.90;;
71667;SDS011;59504;54.806;9.640;2022-11-15T00:55:50;64.93;;;27.02;;
71667;SDS011;59504;54.806;9.640;2022-11-15T00:57:51;58.15;;;25.67;;
71667;SDS011;59504;54.806;9.640;2022-11-15T00:59:52;64.75;;;27.52;;
71667;SDS011;59504;54.806;9.640;2022-11-15T01:01:56;62.38;;;27.75;;
71667;SDS011;59504;54.806;9.640;2022-11-15T01:04:16;66.32;;;27.92;;
71667;SDS011;59504;54.806;9.640;2022-11-15T01:06:35;60.40;;;27.25;;
71667;SDS011;59504;54.806;9.640;2022-11-15T01:08:55;61.10;;;26.20;;
71667;SDS011;59504;54.806;9.640;2022-11-15T01:11:16;70.10;;;28.23;;
71667;SDS011;59504;54.806;9.640;2022-11-15T01:13:37;63.55;;;26.70;;
71667;SDS011;59504;54.806;9.640;2022-11-15T01:15:59;67.22;;;27.33;;
71667;SDS011;59504;54.806;9.640;2022-11-15T01:18:25;61.97;;;27.20;;
71667;SDS011;59504;54.806;9.640;2022-11-15T01:20:46;66.85;;;27.60;;
71667;SDS011;59504;54.806;9.640;2022-11-15T01:23:07;57.88;;;26.65;;
71667;SDS011;59504;54.806;9.640;2022-11-15T01:25:27;60.80;;;26.83;;
71667;SDS011;59504;54.806;9.640;2022-11-15T01:27:48;61.33;;;27.67;;
71667;SDS011;59504;54.806;9.640;2022-11-15T01:30:09;61.83;;;26.95;;
71667;SDS011;59504;54.806;9.640;2022-11-15T01:32:29;68.20;;;28.42;;
71667;SDS011;59504;54.806;9.640;2022-11-15T01:34:50;67.72;;;28.08;;
71667;SDS011;59504;54.806;9.640;2022-11-15T01:37:11;62.60;;;26.05;;
71667;SDS011;59504;54.806;9.640;2022-11-15T01:39:11;68.43;;;28.55;;
71667;SDS011;59504;54.806;9.640;2022-11-15T01:41:19;55.92;;;25.23;;
71667;SDS011;59504;54.806;9.640;2022-11-15T01:43:42;62.72;;;27.65;;
71667;SDS011;59504;54.806;9.640;2022-11-15T01:48:22;59.58;;;25.63;;
71667;SDS011;59504;54.806;9.640;2022-11-15T01:50:32;63.35;;;26.85;;
71667;SDS011;59504;54.806;9.640;2022-11-15T01:52:33;58.63;;;25.75;;
71667;SDS011;59504;54.806;9.640;2022-11-15T01:55:00;68.28;;;28.67;;
71667;SDS011;59504;54.806;9.640;2022-11-15T01:57:11;60.25;;;26.33;;
71667;SDS011;59504;54.806;9.640;2022-11-15T01:59:33;61.63;;;26.90;;
71667;SDS011;59504;54.806;9.640;2022-11-15T02:01:54;63.47;;;26.52;;
71667;SDS011;59504;54.806;9.640;2022-11-15T02:04:20;56.33;;;25.73;;
71667;SDS011;59504;54.806;9.640;2022-11-15T02:06:46;58.97;;;24.95;;
71667;SDS011;59504;54.806;9.640;2022-11-15T02:09:08;62.22;;;25.33;;
71667;SDS011;59504;54.806;9.640;2022-11-15T02:11:31;64.95;;;26.95;;
71667;SDS011;59504;54.806;9.640;2022-11-15T02:13:51;57.10;;;26.65;;
71667;SDS011;59504;54.806;9.640;2022-11-15T02:16:14;58.38;;;26.98;;
71667;SDS011;59504;54.806;9.640;2022-11-15T02:18:30;66.05;;;26.83;;
71667;SDS011;59504;54.806;9.640;2022-11-15T02:20:42;59.10;;;27.55;;
71667;SDS011;59504;54.806;9.640;2022-11-15T02:25:13;66.35;;;27.40;;
71667;SDS011;59504;54.806;9.640;2022-11-15T02:32:20;62.08;;;25.92;;
71667;SDS011;59504;54.806;9.640;2022-11-15T02:37:29;61.58;;;25.15;;
71667;SDS011;59504;54.806;9.640;2022-11-15T02:40:12;60.55;;;25.73;;
71667;SDS011;59504;54.806;9.640;2022-11-15T02:42:57;54.45;;;23.75;;
71667;SDS011;59504;54.806;9.640;2022-11-15T02:45:48;55.08;;;24.00;;
71667;SDS011;59504;54.806;9.640;2022-11-15T02:48:13;53.92;;;24.83;;
71667;SDS011;59504;54.806;9.640;2022-11-15T02:50:36;57.40;;;25.50;;
71667;SDS011;59504;54.806;9.640;2022-11-15T02:52:57;58.83;;;24.10;;
71667;SDS011;59504;54.806;9.640;2022-11-15T02:55:26;57.78;;;24.70;;
71667;SDS011;59504;54.806;9.640;2022-11-15T02:57:44;59.60;;;25.00;;
71667;SDS011;59504;54.806;9.640;2022-11-15T03:04:37;61.03;;;24.83;;
71667;SDS011;59504;54.806;9.640;2022-11-15T03:09:05;60.47;;;25.20;;
71667;SDS011;59504;54.806;9.640;2022-11-15T03:13:16;57.95;;;24.52;;
71667;SDS011;59504;54.806;9.640;2022-11-15T03:15:29;57.90;;;25.73;;
71667;SDS011;59504;54.806;9.640;2022-11-15T03:17:36;59.53;;;25.25;;
71667;SDS011;59504;54.806;9.640;2022-11-15T03:20:06;56.30;;;24.52;;
71667;SDS011;59504;54.806;9.640;2022-11-15T03:22:10;58.80;;;24.50;;
71667;SDS011;59504;54.806;9.640;2022-11-15T03:24:14;54.95;;;24.63;;
71667;SDS011;59504;54.806;9.640;2022-11-15T03:26:18;50.00;;;24.65;;
71667;SDS011;59504;54.806;9.640;2022-11-15T03:28:22;46.42;;;22.15;;
71667;SDS011;59504;54.806;9.640;2022-11-15T03:30:32;51.65;;;24.10;;
71667;SDS011;59504;54.806;9.640;2022-11-15T03:32:39;52.65;;;22.75;;
71667;SDS011;59504;54.806;9.640;2022-11-15T03:40:08;49.95;;;22.75;;
71667;SDS011;59504;54.806;9.640;2022-11-15T03:42:21;47.03;;;22.55;;
71667;SDS011;59504;54.806;9.640;2022-11-15T03:47:21;48.88;;;22.40;;
71667;SDS011;59504;54.806;9.640;2022-11-15T03:49:52;46.47;;;22.27;;
71667;SDS011;59504;54.806;9.640;2022-11-15T03:52:19;42.53;;;21.73;;
71667;SDS011;59504;54.806;9.640;2022-11-15T03:54:48;57.97;;;25.52;;
71667;SDS011;59504;54.806;9.640;2022-11-15T03:57:13;50.85;;;24.02;;
71667;SDS011;59504;54.806;9.640;2022-11-15T03:59:34;45.83;;;22.90;;
71667;SDS011;59504;54.806;9.640;2022-11-15T04:01:55;54.38;;;23.17;;
71667;SDS011;59504;54.806;9.640;2022-11-15T04:04:15;47.53;;;23.05;;
71667;SDS011;59504;54.806;9.640;2022-11-15T04:06:36;48.45;;;23.83;;
71667;SDS011;59504;54.806;9.640;2022-11-15T04:08:57;45.85;;;22.27;;
71667;SDS011;59504;54.806;9.640;2022-11-15T04:10:57;45.30;;;21.42;;
71667;SDS011;59504;54.806;9.640;2022-11-15T04:12:58;43.28;;;21.33;;
71667;SDS011;59504;54.806;9.640;2022-11-15T04:14:59;45.25;;;20.58;;
71667;SDS011;59504;54.806;9.640;2022-11-15T04:17:09;45.03;;;20.30;;
71667;SDS011;59504;54.806;9.640;2022-11-15T04:19:11;45.75;;;21.25;;
71667;SDS011;59504;54.806;9.640;2022-11-15T04:21:30;46.35;;;21.77;;
71667;SDS011;59504;54.806;9.640;2022-11-15T04:24:09;41.20;;;18.90;;
71667;SDS011;59504;54.806;9.640;2022-11-15T04:26:33;53.88;;;21.23;;
71667;SDS011;59504;54.806;9.640;2022-11-15T04:28:54;46.80;;;21.73;;
71667;SDS011;59504;54.806;9.640;2022-11-15T04:31:33;43.20;;;20.02;;
71667;SDS011;59504;54.806;9.640;2022-11-15T04:33:54;48.03;;;21.83;;
71667;SDS011;59504;54.806;9.640;2022-11-15T04:36:15;45.17;;;21.75;;
71667;SDS011;59504;54.806;9.640;2022-11-15T04:38:54;48.13;;;22.60;;
71667;SDS011;59504;54.806;9.640;2022-11-15T04:40:54;46.72;;;22.80;;
71667;SDS011;59504;54.806;9.640;2022-11-15T04:42:56;46.65;;;21.15;;
71667;SDS011;59504;54.806;9.640;2022-11-15T04:45:17;44.60;;;21.10;;
71667;SDS011;59504;54.806;9.640;2022-11-15T04:47:38;41.58;;;21.15;;
71667;SDS011;59504;54.806;9.640;2022-11-15T04:49:38;43.95;;;20.73;;
71667;SDS011;59504;54.806;9.640;2022-11-15T04:51:39;43.20;;;21.48;;
71667;SDS011;59504;54.806;9.640;2022-11-15T04:54:00;41.88;;;20.13;;
71667;SDS011;59504;54.806;9.640;2022-11-15T04:56:20;39.63;;;19.65;;
71667;SDS011;59504;54.806;9.640;2022-11-15T04:58:41;46.45;;;20.33;;
71667;SDS011;59504;54.806;9.640;2022-11-15T05:01:08;41.88;;;19.90;;
71667;SDS011;59504;54.806;9.640;2022-11-15T05:03:30;41.90;;;19.90;;
71667;SDS011;59504;54.806;9.640;2022-11-15T05:06:09;45.33;;;20.77;;
71667;SDS011;59504;54.806;9.640;2022-11-15T05:08:30;38.72;;;20.05;;
71667;SDS011;59504;54.806;9.640;2022-11-15T05:10:51;41.60;;;20.90;;
71667;SDS011;59504;54.806;9.640;2022-11-15T05:13:11;46.22;;;20.65;;
71667;SDS011;59504;54.806;9.640;2022-11-15T05:15:32;38.55;;;19.35;;
71667;SDS011;59504;54.806;9.640;2022-11-15T05:17:56;45.75;;;19.98;;
71667;SDS011;59504;54.806;9.640;2022-11-15T05:20:19;40.47;;;19.35;;
71667;SDS011;59504;54.806;9.640;2022-11-15T05:22:36;45.08;;;20.63;;
71667;SDS011;59504;54.806;9.640;2022-11-15T05:24:38;45.92;;;20.10;;
71667;SDS011;59504;54.806;9.640;2022-11-15T05:26:40;38.80;;;20.55;;
71667;SDS011;59504;54.806;9.640;2022-11-15T05:28:40;42.25;;;19.55;;
71667;SDS011;59504;54.806;9.640;2022-11-15T05:30:41;43.90;;;20.92;;
71667;SDS011;59504;54.806;9.640;2022-11-15T05:32:42;45.97;;;19.58;;
71667;SDS011;59504;54.806;9.640;2022-11-15T05:34:43;41.90;;;20.02;;
71667;SDS011;59504;54.806;9.640;2022-11-15T05:36:44;43.97;;;20.35;;
71667;SDS011;59504;54.806;9.640;2022-11-15T05:38:48;38.67;;;18.90;;
71667;SDS011;59504;54.806;9.640;2022-11-15T05:40:50;42.60;;;19.95;;
71667;SDS011;59504;54.806;9.640;2022-11-15T05:42:50;40.40;;;19.48;;
71667;SDS011;59504;54.806;9.640;2022-11-15T05:44:51;41.22;;;19.75;;
71667;SDS011;59504;54.806;9.640;2022-11-15T05:46:52;37.63;;;18.88;;
71667;SDS011;59504;54.806;9.640;2022-11-15T05:48:54;44.13;;;19.13;;
71667;SDS011;59504;54.806;9.640;2022-11-15T05:50:57;44.60;;;20.23;;
71667;SDS011;59504;54.806;9.640;2022-11-15T05:52:59;41.45;;;20.48;;
71667;SDS011;59504;54.806;9.640;2022-11-15T05:55:01;42.78;;;20.23;;
71667;SDS011;59504;54.806;9.640;2022-11-15T05:57:03;39.17;;;19.23;;
71667;SDS011;59504;54.806;9.640;2022-11-15T05:59:05;43.85;;;19.05;;
71667;SDS011;59504;54.806;9.640;2022-11-15T06:01:07;44.42;;;20.63;;
71667;SDS011;59504;54.806;9.640;2022-11-15T06:03:09;51.97;;;24.23;;
71667;SDS011;59504;54.806;9.640;2022-11-15T06:05:10;46.33;;;21.30;;
71667;SDS011;59504;54.806;9.640;2022-11-15T06:07:11;46.50;;;20.13;;
71667;SDS011;59504;54.806;9.640;2022-11-15T06:09:11;40.75;;;19.73;;
71667;SDS011;59504;54.806;9.640;2022-11-15T06:11:12;38.47;;;18.98;;
71667;SDS011;59504;54.806;9.640;2022-11-15T06:13:13;39.05;;;19.02;;
71667;SDS011;59504;54.806;9.640;2022-11-15T06:15:13;43.65;;;19.02;;
71667;SDS011;59504;54.806;9.640;2022-11-15T06:17:14;36.97;;;18.48;;
71667;SDS011;59504;54.806;9.640;2022-11-15T06:19:15;47.53;;;21.00;;
71667;SDS011;59504;54.806;9.640;2022-11-15T06:21:16;43.28;;;20.52;;
71667;SDS011;59504;54.806;9.640;2022-11-15T06:23:17;42.67;;;19.23;;
71667;SDS011;59504;54.806;9.640;2022-11-15T06:25:17;41.33;;;19.38;;
71667;SDS011;59504;54.806;9.640;2022-11-15T06:27:18;42.40;;;20.50;;
71667;SDS011;59504;54.806;9.640;2022-11-15T06:29:19;47.70;;;22.45;;
71667;SDS011;59504;54.806;9.640;2022-11-15T06:31:19;46.35;;;22.33;;
71667;SDS011;59504;54.806;9.640;2022-11-15T06:33:20;43.00;;;21.58;;
71667;SDS011;59504;54.806;9.640;2022-11-15T06:35:20;42.03;;;20.08;;
71667;SDS011;59504;54.806;9.640;2022-11-15T06:37:21;37.65;;;19.25;;
71667;SDS011;59504;54.806;9.640;2022-11-15T06:39:22;40.55;;;19.67;;
71667;SDS011;59504;54.806;9.640;2022-11-15T06:41:22;39.15;;;19.05;;
71667;SDS011;59504;54.806;9.640;2022-11-15T06:43:23;33.53;;;17.45;;
71667;SDS011;59504;54.806;9.640;2022-11-15T06:45:23;37.13;;;17.83;;
71667;SDS011;59504;54.806;9.640;2022-11-15T06:47:24;41.22;;;19.15;;
71667;SDS011;59504;54.806;9.640;2022-11-15T06:49:25;37.83;;;18.38;;
71667;SDS011;59504;54.806;9.640;2022-11-15T06:51:26;38.95;;;18.35;;
71667;SDS011;59504;54.806;9.640;2022-11-15T06:53:27;44.80;;;18.90;;
71667;SDS011;59504;54.806;9.640;2022-11-15T06:55:28;38.53;;;19.05;;
71667;SDS011;59504;54.806;9.640;2022-11-15T06:57:29;42.45;;;19.20;;
71667;SDS011;59504;54.806;9.640;2022-11-15T06:59:29;39.42;;;19.13;;
71667;SDS011;59504;54.806;9.640;2022-11-15T07:01:30;39.25;;;20.17;;
71667;SDS011;59504;54.806;9.640;2022-11-15T07:03:31;36.67;;;18.45;;
71667;SDS011;59504;54.806;9.640;2022-11-15T07:05:33;43.55;;;21.02;;
71667;SDS011;59504;54.806;9.640;2022-11-15T07:07:34;42.72;;;21.50;;
71667;SDS011;59504;54.806;9.640;2022-11-15T07:09:35;43.63;;;21.10;;
71667;SDS011;59504;54.806;9.640;2022-11-15T07:11:36;48.25;;;23.90;;
71667;SDS011;59504;54.806;9.640;2022-11-15T07:13:36;44.60;;;22.13;;
71667;SDS011;59504;54.806;9.640;2022-11-15T07:15:37;47.63;;;22.80;;
71667;SDS011;59504;54.806;9.640;2022-11-15T07:17:37;51.47;;;22.60;;
71667;SDS011;59504;54.806;9.640;2022-11-15T07:19:38;42.88;;;20.35;;
71667;SDS011;59504;54.806;9.640;2022-11-15T07:21:39;46.08;;;22.60;;
71667;SDS011;59504;54.806;9.640;2022-11-15T07:23:39;38.67;;;20.45;;
71667;SDS011;59504;54.806;9.640;2022-11-15T07:25:40;42.60;;;21.27;;
71667;SDS011;59504;54.806;9.640;2022-11-15T07:27:41;38.33;;;19.27;;
71667;SDS011;59504;54.806;9.640;2022-11-15T07:29:42;37.90;;;18.95;;
71667;SDS011;59504;54.806;9.640;2022-11-15T07:31:43;45.28;;;19.65;;
71667;SDS011;59504;54.806;9.640;2022-11-15T07:33:43;39.60;;;19.33;;
71667;SDS011;59504;54.806;9.640;2022-11-15T07:35:44;40.95;;;19.52;;
71667;SDS011;59504;54.806;9.640;2022-11-15T07:39:55;39.35;;;18.83;;
71667;SDS011;59504;54.806;9.640;2022-11-15T07:41:55;39.15;;;19.15;;
71667;SDS011;59504;54.806;9.640;2022-11-15T07:44:16;35.95;;;19.08;;
71667;SDS011;59504;54.806;9.640;2022-11-15T07:46:17;41.97;;;20.00;;
71667;SDS011;59504;54.806;9.640;2022-11-15T07:48:18;39.00;;;20.33;;
71667;SDS011;59504;54.806;9.640;2022-11-15T07:50:18;36.65;;;17.50;;
71667;SDS011;59504;54.806;9.640;2022-11-15T07:52:19;36.55;;;19.00;;
71667;SDS011;59504;54.806;9.640;2022-11-15T07:54:20;38.42;;;19.65;;
71667;SDS011;59504;54.806;9.640;2022-11-15T07:56:20;42.45;;;20.33;;
71667;SDS011;59504;54.806;9.640;2022-11-15T07:58:21;40.53;;;19.20;;
71667;SDS011;59504;54.806;9.640;2022-11-15T08:00:22;36.47;;;19.33;;
71667;SDS011;59504;54.806;9.640;2022-11-15T08:02:23;40.83;;;18.35;;
71667;SDS011;59504;54.806;9.640;2022-11-15T08:04:24;37.95;;;18.67;;
71667;SDS011;59504;54.806;9.640;2022-11-15T08:06:24;37.10;;;19.15;;
71667;SDS011;59504;54.806;9.640;2022-11-15T08:08:25;38.50;;;20.58;;
71667;SDS011;59504;54.806;9.640;2022-11-15T08:10:26;38.17;;;18.42;;
71667;SDS011;59504;54.806;9.640;2022-11-15T08:12:27;38.38;;;18.63;;
71667;SDS011;59504;54.806;9.640;2022-11-15T08:14:28;38.25;;;18.98;;
71667;SDS011;59504;54.806;9.640;2022-11-15T08:16:29;38.20;;;18.45;;
71667;SDS011;59504;54.806;9.640;2022-11-15T08:18:30;35.17;;;18.10;;
71667;SDS011;59504;54.806;9.640;2022-11-15T08:20:33;37.22;;;18.77;;
71667;SDS011;59504;54.806;9.640;2022-11-15T08:22:35;41.35;;;20.20;;
71667;SDS011;59504;54.806;9.640;2022-11-15T08:24:36;39.20;;;18.90;;
71667;SDS011;59504;54.806;9.640;2022-11-15T08:26:36;42.15;;;19.17;;
71667;SDS011;59504;54.806;9.640;2022-11-15T08:28:37;38.45;;;18.40;;
71667;SDS011;59504;54.806;9.640;2022-11-15T08:30:39;35.63;;;18.40;;
71667;SDS011;59504;54.806;9.640;2022-11-15T08:32:42;39.05;;;18.33;;
71667;SDS011;59504;54.806;9.640;2022-11-15T08:34:42;40.30;;;19.17;;
71667;SDS011;59504;54.806;9.640;2022-11-15T08:36:43;40.80;;;18.48;;
71667;SDS011;59504;54.806;9.640;2022-11-15T08:38:44;38.97;;;17.50;;
71667;SDS011;59504;54.806;9.640;2022-11-15T08:40:44;38.85;;;18.67;;
71667;SDS011;59504;54.806;9.640;2022-11-15T08:42:46;36.35;;;17.58;;
71667;SDS011;59504;54.806;9.640;2022-11-15T08:44:47;40.85;;;17.60;;
71667;SDS011;59504;54.806;9.640;2022-11-15T08:46:48;39.35;;;17.90;;
71667;SDS011;59504;54.806;9.640;2022-11-15T08:48:48;42.17;;;18.58;;
71667;SDS011;59504;54.806;9.640;2022-11-15T08:50:51;35.63;;;17.33;;
71667;SDS011;59504;54.806;9.640;2022-11-15T08:52:54;39.47;;;18.13;;
71667;SDS011;59504;54.806;9.640;2022-11-15T08:54:55;36.67;;;18.08;;
71667;SDS011;59504;54.806;9.640;2022-11-15T08:56:55;36.78;;;17.73;;
71667;SDS011;59504;54.806;9.640;2022-11-15T08:58:56;37.22;;;17.80;;
71667;SDS011;59504;54.806;9.640;2022-11-15T09:00:57;37.33;;;16.77;;
71667;SDS011;59504;54.806;9.640;2022-11-15T09:02:58;30.77;;;15.88;;
71667;SDS011;59504;54.806;9.640;2022-11-15T09:04:59;30.10;;;15.85;;
71667;SDS011;59504;54.806;9.640;2022-11-15T09:07:00;33.95;;;16.73;;
71667;SDS011;59504;54.806;9.640;2022-11-15T09:09:00;35.97;;;18.20;;
71667;SDS011;59504;54.806;9.640;2022-11-15T09:11:21;42.25;;;16.60;;
71667;SDS011;59504;54.806;9.640;2022-11-15T09:13:27;34.88;;;16.23;;
71667;SDS011;59504;54.806;9.640;2022-11-15T09:15:48;33.55;;;16.80;;
71667;SDS011;59504;54.806;9.640;2022-11-15T09:17:48;29.98;;;16.15;;
71667;SDS011;59504;54.806;9.640;2022-11-15T09:20:09;35.60;;;16.13;;
71667;SDS011;59504;54.806;9.640;2022-11-15T09:22:30;32.72;;;16.58;;
71667;SDS011;59504;54.806;9.640;2022-11-15T09:24:51;38.50;;;16.58;;
71667;SDS011;59504;54.806;9.640;2022-11-15T09:27:14;33.58;;;15.68;;
71667;SDS011;59504;54.806;9.640;2022-11-15T09:29:15;36.30;;;16.27;;
71667;SDS011;59504;54.806;9.640;2022-11-15T09:31:16;31.83;;;16.20;;
71667;SDS011;59504;54.806;9.640;2022-11-15T09:33:17;30.25;;;15.70;;
71667;SDS011;59504;54.806;9.640;2022-11-15T09:35:18;35.10;;;15.13;;
71667;SDS011;59504;54.806;9.640;2022-11-15T09:37:18;28.08;;;14.68;;
71667;SDS011;59504;54.806;9.640;2022-11-15T09:39:19;28.85;;;15.98;;
71667;SDS011;59504;54.806;9.640;2022-11-15T09:41:25;30.23;;;15.45;;
71667;SDS011;59504;54.806;9.640;2022-11-15T09:43:47;32.00;;;14.52;;
71667;SDS011;59504;54.806;9.640;2022-11-15T09:50:32;28.50;;;15.27;;
71667;SDS011;59504;54.806;9.640;2022-11-15T09:52:41;30.15;;;14.73;;
71667;SDS011;59504;54.806;9.640;2022-11-15T09:54:46;29.52;;;14.85;;
71667;SDS011;59504;54.806;9.640;2022-11-15T09:56:49;27.58;;;14.50;;
71667;SDS011;59504;54.806;9.640;2022-11-15T10:01:06;24.03;;;13.20;;
71667;SDS011;59504;54.806;9.640;2022-11-15T10:03:12;30.10;;;13.68;;
71667;SDS011;59504;54.806;9.640;2022-11-15T10:05:46;31.00;;;14.45;;
71667;SDS011;59504;54.806;9.640;2022-11-15T10:10:08;29.58;;;15.07;;
71667;SDS011;59504;54.806;9.640;2022-11-15T10:12:23;34.20;;;15.40;;
71667;SDS011;59504;54.806;9.640;2022-11-15T10:14:26;24.60;;;12.63;;
71667;SDS011;59504;54.806;9.640;2022-11-15T10:16:35;22.98;;;13.02;;
71667;SDS011;59504;54.806;9.640;2022-11-15T10:21:16;25.42;;;12.88;;
71667;SDS011;59504;54.806;9.640;2022-11-15T10:23:22;28.05;;;13.50;;
71667;SDS011;59504;54.806;9.640;2022-11-15T10:25:24;29.23;;;14.30;;
71667;SDS011;59504;54.806;9.640;2022-11-15T10:27:25;26.73;;;14.13;;
71667;SDS011;59504;54.806;9.640;2022-11-15T10:29:26;28.90;;;13.45;;
71667;SDS011;59504;54.806;9.640;2022-11-15T10:31:28;28.65;;;13.77;;
71667;SDS011;59504;54.806;9.640;2022-11-15T10:35:33;23.33;;;12.73;;
71667;SDS011;59504;54.806;9.640;2022-11-15T10:37:34;24.95;;;12.27;;
71667;SDS011;59504;54.806;9.640;2022-11-15T10:39:35;26.98;;;13.15;;
71667;SDS011;59504;54.806;9.640;2022-11-15T10:41:37;28.48;;;12.65;;
71667;SDS011;59504;54.806;9.640;2022-11-15T10:45:40;20.70;;;11.45;;
71667;SDS011;59504;54.806;9.640;2022-11-15T10:47:41;19.40;;;11.95;;
71667;SDS011;59504;54.806;9.640;2022-11-15T10:49:52;26.27;;;13.80;;
71667;SDS011;59504;54.806;9.640;2022-11-15T10:52:18;22.55;;;12.70;;
71667;SDS011;59504;54.806;9.640;2022-11-15T10:54:23;22.75;;;12.82;;
71667;SDS011;59504;54.806;9.640;2022-11-15T10:56:42;23.70;;;12.50;;
71667;SDS011;59504;54.806;9.640;2022-11-15T10:58:44;25.85;;;12.35;;
71667;SDS011;59504;54.806;9.640;2022-11-15T11:00:50;28.75;;;13.30;;
71667;SDS011;59504;54.806;9.640;2022-11-15T11:04:57;22.85;;;12.75;;
71667;SDS011;59504;54.806;9.640;2022-11-15T11:06:59;28.25;;;13.45;;
71667;SDS011;59504;54.806;9.640;2022-11-15T11:09:01;23.67;;;12.77;;
71667;SDS011;59504;54.806;9.640;2022-11-15T11:11:03;23.65;;;11.93;;
71667;SDS011;59504;54.806;9.640;2022-11-15T11:13:26;23.40;;;12.82;;
71667;SDS011;59504;54.806;9.640;2022-11-15T11:15:27;22.60;;;12.25;;
71667;SDS011;59504;54.806;9.640;2022-11-15T11:17:35;24.67;;;12.75;;
71667;SDS011;59504;54.806;9.640;2022-11-15T11:22:39;21.90;;;11.75;;
71667;SDS011;59504;54.806;9.640;2022-11-15T11:27:17;25.50;;;11.82;;
71667;SDS011;59504;54.806;9.640;2022-11-15T11:29:28;20.83;;;11.73;;
71667;SDS011;59504;54.806;9.640;2022-11-15T11:31:47;22.90;;;12.13;;
71667;SDS011;59504;54.806;9.640;2022-11-15T11:43:22;23.95;;;12.93;;
71667;SDS011;59504;54.806;9.640;2022-11-15T11:47:38;23.10;;;11.48;;
71667;SDS011;59504;54.806;9.640;2022-11-15T11:49:49;27.90;;;12.35;;
71667;SDS011;59504;54.806;9.640;2022-11-15T11:58:38;24.77;;;11.63;;
71667;SDS011;59504;54.806;9.640;2022-11-15T12:00:53;23.98;;;12.15;;
71667;SDS011;59504;54.806;9.640;2022-11-15T12:05:10;23.95;;;12.27;;
71667;SDS011;59504;54.806;9.640;2022-11-15T12:07:20;27.42;;;12.02;;
71667;SDS011;59504;54.806;9.640;2022-11-15T12:09:44;19.85;;;11.55;;
71667;SDS011;59504;54.806;9.640;2022-11-15T12:11:54;22.98;;;12.00;;
71667;SDS011;59504;54.806;9.640;2022-11-15T12:13:57;23.33;;;12.27;;
71667;SDS011;59504;54.806;9.640;2022-11-15T12:18:49;21.88;;;11.85;;
71667;SDS011;59504;54.806;9.640;2022-11-15T12:21:13;22.90;;;12.05;;
71667;SDS011;59504;54.806;9.640;2022-11-15T12:23:28;23.35;;;12.23;;
71667;SDS011;59504;54.806;9.640;2022-11-15T12:30:17;23.67;;;12.32;;
71667;SDS011;59504;54.806;9.640;2022-11-15T12:32:30;23.92;;;11.38;;
71667;SDS011;59504;54.806;9.640;2022-11-15T12:34:38;25.63;;;11.68;;
71667;SDS011;59504;54.806;9.640;2022-11-15T12:36:45;26.13;;;12.15;;
71667;SDS011;59504;54.806;9.640;2022-11-15T12:38:54;28.33;;;12.60;;
71667;SDS011;59504;54.806;9.640;2022-11-15T12:45:24;26.27;;;12.70;;
71667;SDS011;59504;54.806;9.640;2022-11-15T12:47:36;26.45;;;13.07;;
71667;SDS011;59504;54.806;9.640;2022-11-15T12:53:47;27.10;;;12.50;;
71667;SDS011;59504;54.806;9.640;2022-11-15T12:58:26;25.08;;;11.55;;
71667;SDS011;59504;54.806;9.640;2022-11-15T13:00:38;21.77;;;12.27;;
71667;SDS011;59504;54.806;9.640;2022-11-15T13:02:40;24.65;;;13.05;;
71667;SDS011;59504;54.806;9.640;2022-11-15T13:04:45;27.88;;;13.95;;
71667;SDS011;59504;54.806;9.640;2022-11-15T13:09:49;25.73;;;13.68;;
71667;SDS011;59504;54.806;9.640;2022-11-15T13:11:47;27.75;;;12.65;;
71667;SDS011;59504;54.806;9.640;2022-11-15T13:13:49;27.92;;;11.60;;
71667;SDS011;59504;54.806;9.640;2022-11-15T13:18:18;24.95;;;12.45;;
71667;SDS011;59504;54.806;9.640;2022-11-15T13:20:29;25.60;;;12.73;;
71667;SDS011;59504;54.806;9.640;2022-11-15T13:24:52;26.75;;;12.90;;
71667;SDS011;59504;54.806;9.640;2022-11-15T13:26:54;28.48;;;13.27;;
71667;SDS011;59504;54.806;9.640;2022-11-15T13:28:54;21.35;;;12.02;;
71667;SDS011;59504;54.806;9.640;2022-11-15T13:30:56;22.88;;;11.70;;
71667;SDS011;59504;54.806;9.640;2022-11-15T13:33:05;23.52;;;12.30;;
71667;SDS011;59504;54.806;9.640;2022-11-15T13:35:24;24.02;;;11.77;;
71667;SDS011;59504;54.806;9.640;2022-11-15T13:37:27;21.30;;;10.93;;
71667;SDS011;59504;54.806;9.640;2022-11-15T13:39:31;19.75;;;11.82;;
71667;SDS011;59504;54.806;9.640;2022-11-15T13:41:34;23.08;;;11.70;;
71667;SDS011;59504;54.806;9.640;2022-11-15T13:43:44;23.88;;;11.90;;
71667;SDS011;59504;54.806;9.640;2022-11-15T13:46:02;26.67;;;13.50;;
71667;SDS011;59504;54.806;9.640;2022-11-15T13:48:03;26.58;;;12.68;;
71667;SDS011;59504;54.806;9.640;2022-11-15T13:50:10;21.75;;;12.18;;
71667;SDS011;59504;54.806;9.640;2022-11-15T13:52:13;24.73;;;11.48;;
71667;SDS011;59504;54.806;9.640;2022-11-15T13:54:20;20.08;;;11.38;;
71667;SDS011;59504;54.806;9.640;2022-11-15T13:56:27;23.55;;;12.95;;
71667;SDS011;59504;54.806;9.640;2022-11-15T13:58:31;23.42;;;11.60;;
71667;SDS011;59504;54.806;9.640;2022-11-15T14:02:36;28.63;;;13.32;;
71667;SDS011;59504;54.806;9.640;2022-11-15T14:04:38;21.70;;;11.95;;
71667;SDS011;59504;54.806;9.640;2022-11-15T14:06:45;28.08;;;13.35;;
71667;SDS011;59504;54.806;9.640;2022-11-15T14:11:18;23.15;;;12.20;;
71667;SDS011;59504;54.806;9.640;2022-11-15T14:13:27;30.73;;;14.07;;
71667;SDS011;59504;54.806;9.640;2022-11-15T14:15:30;25.35;;;13.80;;